createdAt,value
2019-04-16T00:00:25.193Z,84.00
2019-04-16T00:02:59.808Z,84.30
2019-04-16T00:05:38.772Z,84.50
2019-04-16T00:08:26.670Z,85.40
2019-04-16T00:10:43.764Z,85.50
2019-04-16T00:13:30.387Z,85.60
2019-04-16T00:15:59.506Z,85.80
2019-04-16T00:18:27.952Z,85.90
2019-04-16T00:20:58.214Z,86.30
2019-04-16T00:23:46.948Z,86.20
2019-04-16T00:26:15.518Z,86.00
2019-04-16T00:28:43.995Z,85.90
2019-04-16T00:31:12.436Z,86.50
2019-04-16T00:33:42.821Z,86.50
2019-04-16T00:36:11.798Z,87.20
2019-04-16T00:38:41.217Z,87.40
2019-04-16T00:41:10.370Z,87.70
2019-04-16T00:43:38.810Z,87.70
2019-04-16T00:46:08.204Z,87.40
2019-04-16T00:48:37.470Z,87.60
2019-04-16T00:51:06.263Z,87.80
2019-04-16T00:53:36.362Z,87.80
2019-04-16T00:56:04.949Z,87.90
2019-04-16T00:58:33.747Z,87.90
2019-04-16T01:01:02.183Z,87.80
2019-04-16T01:03:31.303Z,87.70
2019-04-16T01:06:00.106Z,87.60
2019-04-16T01:08:28.533Z,87.30
2019-04-16T01:10:56.986Z,87.40
2019-04-16T01:13:25.454Z,87.80
2019-04-16T01:15:54.216Z,88.10
2019-04-16T01:18:22.651Z,87.80
2019-04-16T01:20:51.114Z,87.90
2019-04-16T01:23:19.566Z,88.00
2019-04-16T01:25:48.013Z,88.10
2019-04-16T01:28:21.131Z,88.30
2019-04-16T01:30:59.987Z,88.50
2019-04-16T01:33:47.402Z,88.70
2019-04-16T01:36:22.818Z,88.90
2019-04-16T01:39:12.530Z,89.20
2019-04-16T01:41:25.523Z,89.40
2019-04-16T01:43:57.062Z,89.40
2019-04-16T01:46:24.467Z,89.40
2019-04-16T01:48:53.294Z,89.30
2019-04-16T01:51:21.756Z,89.20
2019-04-16T01:53:52.329Z,89.40
2019-04-16T01:56:20.812Z,89.20
2019-04-16T01:58:49.308Z,89.60
2019-04-16T02:01:17.846Z,89.60
2019-04-16T02:03:48.836Z,89.70
2019-04-16T02:06:16.544Z,89.60
2019-04-16T02:08:45.341Z,89.40
2019-04-16T02:11:15.457Z,89.40
2019-04-16T02:13:46.181Z,89.30
2019-04-16T02:16:14.462Z,89.40
2019-04-16T02:18:42.936Z,89.50
2019-04-16T02:21:11.412Z,89.60
2019-04-16T02:23:39.944Z,89.40
2019-04-16T02:26:08.387Z,89.30
2019-04-16T02:28:36.846Z,89.50
2019-04-16T02:31:13.800Z,89.30
2019-04-16T02:33:35.507Z,89.20
2019-04-16T02:36:03.960Z,89.40
2019-04-16T02:38:32.461Z,89.50
2019-04-16T02:41:00.981Z,89.80
2019-04-16T02:43:29.785Z,89.70
2019-04-16T02:45:58.914Z,89.60
2019-04-16T02:48:27.730Z,89.50
2019-04-16T02:51:07.275Z,89.40
2019-04-16T02:53:44.673Z,89.80
2019-04-16T02:56:26.537Z,89.70
2019-04-16T02:58:56.771Z,89.70
2019-04-16T03:01:27.225Z,89.70
2019-04-16T03:04:00.634Z,89.80
2019-04-16T03:06:31.684Z,89.70
2019-04-16T03:08:59.277Z,89.60
2019-04-16T03:11:27.870Z,89.40
2019-04-16T03:13:59.239Z,89.50
2019-04-16T03:16:28.242Z,89.40
2019-04-16T03:19:07.171Z,89.30
2019-04-16T03:21:35.954Z,89.30
2019-04-16T03:24:08.024Z,89.30
2019-04-16T03:26:35.130Z,89.50
2019-04-16T03:29:05.094Z,89.80
2019-04-16T03:31:33.550Z,90.00
2019-04-16T03:34:02.022Z,90.10
2019-04-16T03:36:30.559Z,90.00
2019-04-16T03:38:59.049Z,89.90
2019-04-16T03:41:27.526Z,90.00
2019-04-16T03:43:55.993Z,90.30
2019-04-16T03:46:24.470Z,90.40
2019-04-16T03:48:56.090Z,90.40
2019-04-16T03:51:23.446Z,90.50
2019-04-16T03:53:51.921Z,90.20
2019-04-16T03:56:20.390Z,90.00
2019-04-16T03:58:49.285Z,90.00
2019-04-16T04:01:17.726Z,89.90
2019-04-16T04:03:46.221Z,89.90
2019-04-16T04:06:14.668Z,89.90
2019-04-16T04:08:48.040Z,90.10
2019-04-16T04:11:13.621Z,90.00
2019-04-16T04:13:42.113Z,89.70
2019-04-16T04:16:10.533Z,89.50
2019-04-16T04:18:42.917Z,89.50
2019-04-16T04:21:09.198Z,89.70
2019-04-16T04:23:37.670Z,89.80
2019-04-16T04:26:08.907Z,89.90
2019-04-16T04:28:36.313Z,90.10
2019-04-16T04:31:04.758Z,90.20
2019-04-16T04:33:41.383Z,90.30
2019-04-16T04:36:09.597Z,90.40
2019-04-16T04:38:39.308Z,90.50
2019-04-16T04:41:08.231Z,90.60
2019-04-16T04:43:37.104Z,90.70
2019-04-16T04:46:06.065Z,90.80
2019-04-16T04:48:34.533Z,90.90
2019-04-16T04:51:06.677Z,90.90
2019-04-16T04:53:33.270Z,91.00
2019-04-16T04:56:01.735Z,90.80
2019-04-16T04:58:33.705Z,90.70
2019-04-16T05:01:00.385Z,90.60
2019-04-16T05:03:30.487Z,90.70
2019-04-16T05:06:00.666Z,90.70
2019-04-16T05:08:29.337Z,90.80
2019-04-16T05:10:59.912Z,90.80
2019-04-16T05:13:28.122Z,90.70
2019-04-16T05:15:58.356Z,90.60
2019-04-16T05:18:26.754Z,90.50
2019-04-16T05:20:55.281Z,90.40
2019-04-16T05:23:25.715Z,90.30
2019-04-16T05:25:54.245Z,90.30
2019-04-16T05:28:22.690Z,90.30
2019-04-16T05:30:52.324Z,90.30
2019-04-16T05:33:21.924Z,90.20
2019-04-16T05:35:51.054Z,90.10
2019-04-16T05:38:20.510Z,90.10
2019-04-16T05:40:49.764Z,89.90
2019-04-16T05:43:18.361Z,89.80
2019-04-16T05:45:47.042Z,89.70
2019-04-16T05:48:15.490Z,89.40
2019-04-16T05:50:44.256Z,89.30
2019-04-16T05:53:13.614Z,89.20
2019-04-16T05:56:01.081Z,88.90
2019-04-16T05:58:30.718Z,88.70
2019-04-16T06:01:07.310Z,88.50
2019-04-16T06:03:35.759Z,88.20
2019-04-16T06:06:04.212Z,88.10
2019-04-16T06:08:32.674Z,87.90
2019-04-16T06:11:01.511Z,87.80
2019-04-16T06:13:31.602Z,87.70
2019-04-16T06:16:01.711Z,87.40
2019-04-16T06:18:37.071Z,87.20
2019-04-16T06:21:22.642Z,87.20
2019-04-16T06:23:54.910Z,87.00
2019-04-16T06:26:41.205Z,86.70
2019-04-16T06:29:29.402Z,86.00
2019-04-16T06:32:15.923Z,85.50
2019-04-16T06:35:02.385Z,85.00
2019-04-16T06:37:32.473Z,84.10
2019-04-16T06:40:18.761Z,83.60
2019-04-16T06:42:51.458Z,82.70
2019-04-16T06:45:21.009Z,82.10
2019-04-16T06:47:51.157Z,81.50
2019-04-16T06:50:31.217Z,80.50
2019-04-16T06:53:05.077Z,79.60
2019-04-16T06:55:38.081Z,79.30
2019-04-16T06:58:12.550Z,79.40
2019-04-16T07:00:59.063Z,78.80
2019-04-16T07:03:32.253Z,79.20
2019-04-16T07:06:04.787Z,79.40
2019-04-16T07:08:41.637Z,79.30
2019-04-16T07:11:09.789Z,79.40
2019-04-16T07:13:41.980Z,79.10
2019-04-16T07:16:08.875Z,78.10
2019-04-16T07:18:38.517Z,75.50
2019-04-16T07:21:07.876Z,74.80
2019-04-16T07:23:36.409Z,74.40
2019-04-16T07:26:05.035Z,73.10
2019-04-16T07:28:37.983Z,73.90
2019-04-16T07:31:13.250Z,73.20
2019-04-16T07:33:56.523Z,73.90
2019-04-16T07:36:29.590Z,72.40
2019-04-16T07:39:28.295Z,70.70
2019-04-16T07:42:08.486Z,70.20
2019-04-16T07:44:30.053Z,68.50
2019-04-16T07:47:06.295Z,68.30
2019-04-16T07:49:36.394Z,68.60
2019-04-16T07:52:12.168Z,67.60
2019-04-16T07:54:59.267Z,67.70
2019-04-16T07:57:27.832Z,69.70
2019-04-16T07:59:56.634Z,70.70
2019-04-16T08:02:27.050Z,67.10
2019-04-16T08:04:55.515Z,65.70
2019-04-16T08:07:23.973Z,66.20
2019-04-16T08:09:52.406Z,67.00
2019-04-16T08:12:29.941Z,66.40
2019-04-16T08:14:51.020Z,64.00
2019-04-16T08:17:20.024Z,63.50
2019-04-16T08:19:49.410Z,63.70
2019-04-16T08:22:18.357Z,63.50
2019-04-16T08:24:48.501Z,64.00
2019-04-16T08:27:19.163Z,62.80
2019-04-16T08:29:47.165Z,63.20
2019-04-16T08:32:16.143Z,63.50
2019-04-16T08:34:45.538Z,61.90
2019-04-16T08:37:13.985Z,62.00
2019-04-16T08:39:42.450Z,63.50
2019-04-16T08:42:10.898Z,59.40
2019-04-16T08:44:39.351Z,61.70
2019-04-16T08:47:11.503Z,60.90
2019-04-16T08:49:38.327Z,63.00
2019-04-16T08:52:09.921Z,61.60
2019-04-16T08:54:36.955Z,61.40
2019-04-16T08:57:05.700Z,63.10
2019-04-16T08:59:34.174Z,61.10
2019-04-16T09:02:03.073Z,59.90
2019-04-16T09:04:34.468Z,61.20
2019-04-16T09:07:11.111Z,58.80
2019-04-16T09:09:36.457Z,59.30
2019-04-16T09:12:09.142Z,57.80
2019-04-16T09:14:38.877Z,58.10
2019-04-16T09:17:09.899Z,53.40
2019-04-16T09:19:40.569Z,54.00
2019-04-16T09:22:09.029Z,57.60
2019-04-16T09:24:41.350Z,55.40
2019-04-16T09:27:13.410Z,55.80
2019-04-16T09:29:52.134Z,57.20
2019-04-16T09:32:38.389Z,58.80
2019-04-16T09:35:18.546Z,59.30
2019-04-16T09:37:49.382Z,59.20
2019-04-16T09:40:25.676Z,61.90
2019-04-16T09:42:54.086Z,56.80
2019-04-16T09:45:24.769Z,56.00
2019-04-16T09:47:53.111Z,56.20
2019-04-16T09:50:21.523Z,56.90
2019-04-16T09:52:55.431Z,56.10
2019-04-16T09:55:22.854Z,56.30
2019-04-16T09:57:51.258Z,58.20
2019-04-16T10:00:21.803Z,58.50
2019-04-16T10:02:50.355Z,56.40
2019-04-16T10:05:18.794Z,54.40
2019-04-16T10:07:47.212Z,56.00
2019-04-16T10:10:16.103Z,56.10
2019-04-16T10:12:44.550Z,54.90
2019-04-16T10:15:13.904Z,54.10
2019-04-16T10:17:42.472Z,54.30
2019-04-16T10:20:11.338Z,54.40
2019-04-16T10:22:39.737Z,56.50
2019-04-16T10:25:10.137Z,56.90
2019-04-16T10:27:40.129Z,57.20
2019-04-16T10:30:30.045Z,57.70
2019-04-16T10:32:57.909Z,58.80
2019-04-16T10:35:26.437Z,57.40
2019-04-16T10:37:55.157Z,56.20
2019-04-16T10:40:25.323Z,57.40
2019-04-16T10:43:04.178Z,55.50
2019-04-16T10:45:34.545Z,56.00
2019-04-16T10:48:20.811Z,57.40
2019-04-16T10:50:50.899Z,57.60
2019-04-16T10:53:36.838Z,58.00
2019-04-16T10:56:10.343Z,60.20
2019-04-16T10:58:43.057Z,57.60
2019-04-16T11:01:15.839Z,57.60
2019-04-16T11:03:51.630Z,57.00
2019-04-16T11:06:30.461Z,55.10
2019-04-16T11:08:58.863Z,54.40
2019-04-16T11:11:27.314Z,52.20
2019-04-16T11:13:59.999Z,54.10
2019-04-16T11:16:26.268Z,53.00
2019-04-16T11:18:55.104Z,54.90
2019-04-16T11:21:24.076Z,55.50
2019-04-16T11:23:52.558Z,56.20
2019-04-16T11:26:21.047Z,59.00
2019-04-16T11:28:49.471Z,58.20
2019-04-16T11:31:19.876Z,55.70
2019-04-16T11:33:48.549Z,55.20
2019-04-16T11:36:20.238Z,53.00
2019-04-16T11:38:47.202Z,52.80
2019-04-16T11:41:15.681Z,50.70
2019-04-16T11:43:44.100Z,51.50
2019-04-16T11:46:12.931Z,52.20
2019-04-16T11:48:41.326Z,56.50
2019-04-16T11:51:10.179Z,55.00
2019-04-16T11:53:38.641Z,53.10
2019-04-16T11:56:07.062Z,53.20
2019-04-16T11:58:37.106Z,53.70
2019-04-16T12:01:09.843Z,53.60
2019-04-16T12:03:56.253Z,53.00
2019-04-16T12:06:28.657Z,53.30
2019-04-16T12:09:15.139Z,54.90
2019-04-16T12:12:00.275Z,53.40
2019-04-16T12:14:34.911Z,53.30
2019-04-16T12:17:05.618Z,55.00
2019-04-16T12:19:52.116Z,56.60
2019-04-16T12:22:24.594Z,54.20
2019-04-16T12:25:11.162Z,55.30
2019-04-16T12:27:52.852Z,54.80
2019-04-16T12:30:28.490Z,56.30
2019-04-16T12:32:59.006Z,56.10
2019-04-16T12:35:45.473Z,55.70
2019-04-16T12:38:32.039Z,55.60
2019-04-16T12:41:08.611Z,55.30
2019-04-16T12:43:38.688Z,56.00
2019-04-16T12:46:21.019Z,56.00
2019-04-16T12:48:54.183Z,56.40
2019-04-16T12:51:26.969Z,56.60
2019-04-16T12:53:57.038Z,57.40
2019-04-16T12:56:43.796Z,56.30
2019-04-16T12:59:22.895Z,56.10
2019-04-16T13:02:04.151Z,56.40
2019-04-16T13:04:37.185Z,55.60
2019-04-16T13:07:25.993Z,56.00
2019-04-16T13:09:56.420Z,55.60
2019-04-16T13:12:42.930Z,56.10
2019-04-16T13:15:24.898Z,55.80
2019-04-16T13:18:06.922Z,55.20
2019-04-16T13:20:40.416Z,55.30
2019-04-16T13:23:13.421Z,55.50
2019-04-16T13:26:00.074Z,55.40
2019-04-16T13:28:28.547Z,55.60
2019-04-16T13:30:57.910Z,57.00
2019-04-16T13:33:26.313Z,57.20
2019-04-16T13:35:54.826Z,56.50
2019-04-16T13:38:25.180Z,56.60
2019-04-16T13:40:54.161Z,57.40
2019-04-16T13:43:27.325Z,57.60
2019-04-16T13:45:58.179Z,56.40
2019-04-16T13:48:30.657Z,56.10
2019-04-16T13:51:00.710Z,55.00
2019-04-16T13:53:31.094Z,53.90
2019-04-16T13:56:01.429Z,55.00
2019-04-16T13:58:46.742Z,54.80
2019-04-16T14:01:35.146Z,56.80
2019-04-16T14:04:03.570Z,54.60
2019-04-16T14:06:32.049Z,55.30
2019-04-16T14:09:00.473Z,53.00
2019-04-16T14:11:28.893Z,49.10
2019-04-16T14:13:57.650Z,48.20
2019-04-16T14:16:26.421Z,47.80
2019-04-16T14:18:55.227Z,47.00
2019-04-16T14:21:23.776Z,49.40
2019-04-16T14:23:52.198Z,47.00
2019-04-16T14:26:20.618Z,47.80
2019-04-16T14:28:52.237Z,49.00
2019-04-16T14:31:21.285Z,49.60
2019-04-16T14:34:00.269Z,51.40
2019-04-16T14:36:29.012Z,53.70
2019-04-16T14:39:06.814Z,54.90
2019-04-16T14:41:32.509Z,55.40
2019-04-16T14:44:05.467Z,56.80
2019-04-16T14:46:33.965Z,58.90
2019-04-16T14:49:02.390Z,59.40
2019-04-16T14:51:30.806Z,58.80
2019-04-16T14:54:00.870Z,59.40
2019-04-16T14:56:37.337Z,57.60
2019-04-16T14:59:07.662Z,57.20
2019-04-16T15:01:37.846Z,55.30
2019-04-16T15:04:17.215Z,55.50
2019-04-16T15:07:05.314Z,56.20
2019-04-16T15:09:41.254Z,54.40
2019-04-16T15:12:14.118Z,54.30
2019-04-16T15:14:44.222Z,53.80
2019-04-16T15:17:20.350Z,53.30
2019-04-16T15:19:53.100Z,52.40
2019-04-16T15:22:26.151Z,51.60
2019-04-16T15:25:02.342Z,51.20
2019-04-16T15:27:35.482Z,52.50
2019-04-16T15:30:10.286Z,53.00
2019-04-16T15:32:43.265Z,51.70
2019-04-16T15:35:16.493Z,52.60
2019-04-16T15:37:54.637Z,52.20
2019-04-16T15:40:24.158Z,52.20
2019-04-16T15:43:00.274Z,52.80
2019-04-16T15:45:36.626Z,51.90
2019-04-16T15:48:06.954Z,52.90
2019-04-16T15:50:42.766Z,52.90
2019-04-16T15:53:12.838Z,53.90
2019-04-16T15:55:43.263Z,53.70
2019-04-16T15:58:16.092Z,53.90
2019-04-16T16:00:46.717Z,53.60
2019-04-16T16:03:33.447Z,54.40
2019-04-16T16:06:16.910Z,55.60
2019-04-16T16:08:59.807Z,55.60
2019-04-16T16:11:48.015Z,55.80
2019-04-16T16:14:16.248Z,54.90
2019-04-16T16:16:47.691Z,56.40
2019-04-16T16:19:16.203Z,56.90
2019-04-16T16:21:44.701Z,56.00
2019-04-16T16:24:13.154Z,57.60
2019-04-16T16:26:41.618Z,56.90
2019-04-16T16:29:10.490Z,57.80
2019-04-16T16:31:39.009Z,59.20
2019-04-16T16:34:09.343Z,60.30
2019-04-16T16:36:40.703Z,60.80
2019-04-16T16:39:08.553Z,61.30
2019-04-16T16:41:41.591Z,62.00
2019-04-16T16:44:10.385Z,62.40
2019-04-16T16:46:56.591Z,63.20
2019-04-16T16:49:19.449Z,63.90
2019-04-16T16:51:49.528Z,64.50
2019-04-16T16:54:23.031Z,64.20
2019-04-16T16:56:53.265Z,64.40
2019-04-16T16:59:39.615Z,64.00
2019-04-16T17:02:18.662Z,64.50
2019-04-16T17:04:49.019Z,66.70
2019-04-16T17:07:18.061Z,67.70
2019-04-16T17:09:46.657Z,68.50
2019-04-16T17:12:15.144Z,69.10
2019-04-16T17:14:43.583Z,69.90
2019-04-16T17:17:14.891Z,70.00
2019-04-16T17:19:42.473Z,71.20
2019-04-16T17:22:10.942Z,72.20
2019-04-16T17:24:39.735Z,72.40
2019-04-16T17:27:08.170Z,72.60
2019-04-16T17:29:36.612Z,72.70
2019-04-16T17:32:05.110Z,73.70
2019-04-16T17:34:38.937Z,74.60
2019-04-16T17:37:03.963Z,76.20
2019-04-16T17:39:36.480Z,78.90
2019-04-16T17:42:06.639Z,80.90
2019-04-16T17:44:54.455Z,81.20
2019-04-16T17:47:32.061Z,82.20
2019-04-16T17:50:03.887Z,83.10
2019-04-16T17:52:37.365Z,83.40
2019-04-16T17:55:07.852Z,83.80
2019-04-16T17:57:37.947Z,83.80
2019-04-16T18:00:24.552Z,83.90
2019-04-16T18:02:57.277Z,84.20
2019-04-16T18:05:42.178Z,84.60
2019-04-16T18:08:18.105Z,85.00
2019-04-16T18:10:48.495Z,85.40
2019-04-16T18:13:18.606Z,85.80
2019-04-16T18:15:51.703Z,85.90
2019-04-16T18:18:24.771Z,85.80
2019-04-16T18:21:09.832Z,85.90
2019-04-16T18:23:39.919Z,85.90
2019-04-16T18:26:15.786Z,85.80
2019-04-16T18:29:02.059Z,86.70
2019-04-16T18:31:44.850Z,87.10
2019-04-16T18:34:23.578Z,87.10
2019-04-16T18:36:53.718Z,87.60
2019-04-16T18:39:38.796Z,87.40
2019-04-16T18:42:26.879Z,87.70
2019-04-16T18:45:03.246Z,87.40
2019-04-16T18:47:33.314Z,87.20
2019-04-16T18:50:03.390Z,87.40
2019-04-16T18:52:31.812Z,87.70
2019-04-16T18:55:00.365Z,87.90
2019-04-16T18:57:29.122Z,88.40
2019-04-16T18:59:57.564Z,88.50
2019-04-16T19:02:27.634Z,88.50
2019-04-16T19:04:56.380Z,88.50
2019-04-16T19:07:24.993Z,88.50
2019-04-16T19:09:53.513Z,88.40
2019-04-16T19:12:22.032Z,88.50
2019-04-16T19:14:50.478Z,88.60
2019-04-16T19:17:18.972Z,88.70
2019-04-16T19:19:47.461Z,89.40
2019-04-16T19:22:15.899Z,89.90
2019-04-16T19:24:44.342Z,89.90
2019-04-16T19:27:13.155Z,89.90
2019-04-16T19:29:42.831Z,89.90
2019-04-16T19:32:12.106Z,90.00
2019-04-16T19:34:41.811Z,90.10
2019-04-16T19:37:10.738Z,90.10
2019-04-16T19:39:39.517Z,90.30
2019-04-16T19:42:11.122Z,90.70
2019-04-16T19:44:40.042Z,90.80
2019-04-16T19:47:08.753Z,91.40
2019-04-16T19:49:37.226Z,91.60
2019-04-16T19:52:05.666Z,92.30
2019-04-16T19:54:34.131Z,92.40
2019-04-16T19:57:02.575Z,92.30
2019-04-16T19:59:31.014Z,92.20
2019-04-16T20:02:01.638Z,92.10
2019-04-16T20:04:30.011Z,92.20
2019-04-16T20:07:01.159Z,92.20
2019-04-16T20:09:28.895Z,92.40
2019-04-16T20:11:57.347Z,92.40
2019-04-16T20:14:25.889Z,92.50
2019-04-16T20:16:54.722Z,92.50
2019-04-16T20:19:23.172Z,92.60
2019-04-16T20:21:51.634Z,92.60
2019-04-16T20:24:20.183Z,92.80
2019-04-16T20:26:48.931Z,93.20
2019-04-16T20:29:17.365Z,93.70
2019-04-16T20:31:46.208Z,93.70
2019-04-16T20:34:17.975Z,93.60
2019-04-16T20:36:44.886Z,93.70
2019-04-16T20:39:13.455Z,94.30
2019-04-16T20:41:54.032Z,94.50
2019-04-16T20:44:22.661Z,94.40
2019-04-16T20:46:51.110Z,94.60
2019-04-16T20:49:19.543Z,94.80
2019-04-16T20:51:48.429Z,94.90
2019-04-16T20:54:16.875Z,94.90
2019-04-16T20:56:45.366Z,94.90
2019-04-16T20:59:13.812Z,95.00
2019-04-16T21:01:42.279Z,95.30
2019-04-16T21:04:10.726Z,95.80
2019-04-16T21:06:41.862Z,96.00
2019-04-16T21:09:09.355Z,96.30
2019-04-16T21:11:41.033Z,96.50
2019-04-16T21:14:07.989Z,96.50
2019-04-16T21:16:36.860Z,96.60
2019-04-16T21:19:15.539Z,96.80
2019-04-16T21:21:37.995Z,96.90
2019-04-16T21:24:08.282Z,96.90
2019-04-16T21:26:36.606Z,96.80
2019-04-16T21:29:21.504Z,96.80
2019-04-16T21:31:53.671Z,96.80
2019-04-16T21:34:29.802Z,96.60
2019-04-16T21:36:59.205Z,96.30
2019-04-16T21:39:38.426Z,96.30
2019-04-16T21:42:06.861Z,96.60
2019-04-16T21:44:35.302Z,96.70
2019-04-16T21:47:03.760Z,96.70
2019-04-16T21:49:39.018Z,96.60
2019-04-16T21:52:08.282Z,96.60
2019-04-16T21:54:39.317Z,96.60
2019-04-16T21:57:09.114Z,96.60
2019-04-16T21:59:38.063Z,96.60
2019-04-16T22:02:13.767Z,96.50
2019-04-16T22:04:42.669Z,96.50
2019-04-16T22:07:11.381Z,96.40
2019-04-16T22:09:39.835Z,96.40
2019-04-16T22:12:08.648Z,96.50
2019-04-16T22:14:37.423Z,96.40
2019-04-16T22:17:05.870Z,96.30
2019-04-16T22:19:34.354Z,96.30
2019-04-16T22:22:02.830Z,96.30
2019-04-16T22:24:31.662Z,96.20
2019-04-16T22:27:00.105Z,95.90
2019-04-16T22:29:28.577Z,95.80
2019-04-16T22:31:58.121Z,95.80
2019-04-16T22:34:27.525Z,95.80
2019-04-16T22:36:56.330Z,95.70
2019-04-16T22:39:41.363Z,95.60
2019-04-16T22:42:20.457Z,95.50
2019-04-16T22:44:50.553Z,95.20
2019-04-16T22:47:23.303Z,95.20
2019-04-16T22:49:56.735Z,95.40
2019-04-16T22:52:22.318Z,95.70
2019-04-16T22:54:52.979Z,95.80
2019-04-16T22:57:21.317Z,96.00
2019-04-16T22:59:49.788Z,96.10
2019-04-16T23:02:22.819Z,96.20
2019-04-16T23:04:51.274Z,96.20
2019-04-16T23:07:20.071Z,96.20
2019-04-16T23:09:49.326Z,96.20
2019-04-16T23:12:18.046Z,96.30
2019-04-16T23:14:46.809Z,96.30
2019-04-16T23:17:16.121Z,96.40
2019-04-16T23:19:44.578Z,96.50
2019-04-16T23:22:15.267Z,96.70
2019-04-16T23:24:43.214Z,96.80
2019-04-16T23:27:11.662Z,96.80
2019-04-16T23:29:40.559Z,96.80
2019-04-16T23:32:08.998Z,96.70
2019-04-16T23:34:37.989Z,96.70
2019-04-16T23:37:07.788Z,96.80
2019-04-16T23:39:37.515Z,96.70
2019-04-16T23:42:06.386Z,96.70
2019-04-16T23:44:42.900Z,96.90
2019-04-16T23:47:12.973Z,97.10
2019-04-16T23:49:45.749Z,97.20
2019-04-16T23:52:21.859Z,97.20
2019-04-16T23:55:03.777Z,97.40
2019-04-16T23:57:50.377Z,97.60
